Terminal Aerodrome Forecast
Issued by NWS Pittsburgh, PA

Current Version | Previous Version | Graphics & Text | Print | Product List | Glossary On
Versions: 1 2 3 4 5 6 7 8 9 10 11 12 13 14 15 16 17 18 19 20 21 22 23 24
186
FTUS41 KPBZ 172108 AAC
TAFPIT
TAF AMD
KPIT 172108Z 1721/1824 26006KT P6SM VCSH BKN021
     FM180100 24006KT P6SM BKN040
     FM180500 23007KT P6SM SCT090
     FM181500 23010G18KT P6SM SCT110=

USA.gov is the U.S. government's official web portal to all federal, state and local government web resources and services.